Hlavní strana
METAR-TAF:

METAR-TAF

Letiště :

Göteborg-Landvetter, Švédsko

zeměpisná šířka: 57-40N, zeměpisná délka: 012-18E, výška: 169 m

Aktuální stav počasí

Zpráva byla vytvořena před 29 hodinami a 46 minutami, v 15:50 UTC
Jihojihozápadní vítr 10 kt
Teplota 18°C
Vlhkost vzduchu 68%
Tlak 1015 hPa
Viditelnost 10 km a více
Polojasno ve výšce 2400 ft
Oblačno až skoro zataženo ve výšce 3500 ft

METAR: ESGG 171550Z 20010KT 9999 SCT024 BKN035 18/12 Q1015

Čas: 23:36 (21:36 UTC)

Předpověď počasí

Zpráva byla vytvořena před 22 hodinami a 6 minutami, v 23:30 UTC
Předpověď platná od 21 v 00 UTC do 21 v 24 UTC
vítr z různých směrů 2 kt
Viditelnost 10 km a více
Žádná oblačnost pod 1500 m, nevyskytují se cumulonimby.
Pravděpodobnost 40%
od 21 v 00 UTC do 21 v 06 UTC
Viditelnost: 0300 m
ve výšce 200 ft
mlha

TAF: ESGG 202330Z 2100/2124 VRB02KT CAVOK PROB40 2100/2106 0300 FG VV002

Stav a předpovědi počasí z více než 4 000 letišť (zprávy METAR a TAF).

Červené a žluté tečky na mapě představují dostupné meteorologické stanice.

Když kurzor umístíte na tečku, zobrazí se název stanice.

Pak kliknutím zobrazíte stav a předpověď počasí.

Chcete-li změnit mapu, kliknutím na zelené tlačítko se znaménkem +mapu přiblížíte, kliknutím na zelené tlačítko se znaménkem – mapu oddálíte a kliknutím na zelené šipky přejdete na sousední mapy.


METAR-TAF: